Time;durP1;ratioP1;P1;durP2;ratioP2;P2;SDS_P1;SDS_P2;PMS_P1;PMS_P2;Temp;Humidity;BMP_temperature;BMP_pressure;BME280_temperature;BME280_humidity;BME280_pressure;Samples;Min_cycle;Max_cycle;Signal;HPM_P1;HPM_P2
2022/06/06 00:00:13;;;;;;;11.90;9.30;;;;;;;15.89;90.88;101200.16;107962;1243;63609;-73
2022/06/06 00:03:02;;;;;;;12.00;9.70;;;;;;;15.89;90.60;101203.61;107916;1243;60554;-74
2022/06/06 00:05:32;;;;;;;9.70;8.60;;;;;;;15.85;90.90;101199.19;107833;1243;72734;-72
2022/06/06 00:08:01;;;;;;;10.30;9.10;;;;;;;15.90;89.83;101203.75;107927;1242;72324;-73
2022/06/06 00:10:30;;;;;;;12.40;9.70;;;;;;;15.88;90.38;101204.42;107973;1243;69692;-73
2022/06/06 00:12:59;;;;;;;12.60;9.60;;;;;;;15.87;90.72;101202.88;107834;1243;72469;-74
2022/06/06 00:15:29;;;;;;;10.90;9.40;;;;;;;15.87;90.41;101203.98;107804;1243;62684;-73
2022/06/06 00:17:57;;;;;;;10.60;9.50;;;;;;;15.89;90.27;101208.52;107897;1243;60937;-74
2022/06/06 00:20:27;;;;;;;11.90;9.60;;;;;;;15.91;90.59;101209.79;107809;1243;74603;-74
2022/06/06 00:23:00;;;;;;;13.40;9.10;;;;;;;15.95;89.94;101213.83;107746;1243;70791;-75
2022/06/06 00:25:29;;;;;;;10.70;9.50;;;;;;;15.94;90.01;101211.83;107974;1243;69768;-74
2022/06/06 00:27:58;;;;;;;11.50;9.70;;;;;;;15.97;89.24;101210.47;107946;1243;70637;-75
2022/06/06 00:30:27;;;;;;;11.50;9.00;;;;;;;15.94;89.10;101210.08;108015;1243;63960;-73
2022/06/06 00:35:42;;;;;;;12.50;9.70;;;;;;;15.95;89.30;101209.83;107918;1243;74775;-74
2022/06/06 00:38:11;;;;;;;11.70;9.50;;;;;;;15.98;88.57;101212.66;107935;1243;69802;-74
2022/06/06 00:40:40;;;;;;;11.70;9.50;;;;;;;16.00;88.09;101214.45;107940;1243;69063;-72
2022/06/06 00:43:09;;;;;;;12.00;10.00;;;;;;;15.98;88.18;101211.34;107940;1243;71667;-72
2022/06/06 00:45:39;;;;;;;12.70;9.90;;;;;;;15.94;88.43;101210.61;107989;1243;60475;-74
2022/06/06 00:48:37;;;;;;;12.20;9.90;;;;;;;15.95;88.30;101210.89;107875;1243;58914;-72
2022/06/06 00:51:14;;;;;;;12.00;10.10;;;;;;;15.96;88.41;101206.77;107976;1243;71744;-71
2022/06/06 00:53:53;;;;;;;12.30;10.20;;;;;;;15.95;88.39;101204.91;107880;1243;72373;-71
2022/06/06 00:56:42;;;;;;;11.80;10.00;;;;;;;15.95;88.33;101208.00;107787;1243;67633;-75
2022/06/06 00:59:27;;;;;;;13.20;9.80;;;;;;;15.93;88.21;101203.98;107902;1243;71190;-74
2022/06/06 01:01:57;;;;;;;10.80;9.50;;;;;;;15.96;88.38;101204.81;107770;1243;62646;-72
2022/06/06 01:04:29;;;;;;;10.60;9.50;;;;;;;15.99;88.95;101206.45;107682;1243;61039;-72
2022/06/06 01:06:58;;;;;;;14.60;9.70;;;;;;;16.02;88.69;101207.59;108770;1243;74877;-72
2022/06/06 01:09:27;;;;;;;11.60;9.30;;;;;;;16.05;88.01;101206.80;107798;1243;71404;-72
2022/06/06 01:12:00;;;;;;;11.90;10.60;;;;;;;16.00;88.69;101206.33;107733;1242;69809;-75
2022/06/06 01:14:37;;;;;;;11.50;9.90;;;;;;;16.03;88.86;101204.34;107769;1243;72157;-75
2022/06/06 01:17:12;;;;;;;12.30;9.80;;;;;;;16.01;88.56;101203.45;107731;1244;60634;-71
2022/06/06 01:20:03;;;;;;;10.60;9.50;;;;;;;16.00;88.25;101204.94;107738;1243;57756;-72
2022/06/06 01:23:04;;;;;;;11.50;10.30;;;;;;;15.93;88.33;101203.48;107655;1243;74487;-73
2022/06/06 01:26:06;;;;;;;13.10;9.90;;;;;;;15.92;88.78;101201.45;107709;1243;71990;-71
2022/06/06 01:28:51;;;;;;;10.70;9.30;;;;;;;15.91;88.25;101195.55;107677;1243;68692;-80
2022/06/06 01:31:50;;;;;;;10.60;9.20;;;;;;;15.86;88.77;101193.19;107756;1243;71829;-73
2022/06/06 01:34:32;;;;;;;13.30;9.50;;;;;;;15.87;87.99;101189.73;107741;1243;60541;-72
2022/06/06 01:37:03;;;;;;;11.00;9.70;;;;;;;15.87;87.82;101192.23;107749;1243;59708;-74
2022/06/06 01:39:32;;;;;;;13.80;9.50;;;;;;;15.85;87.96;101190.47;107714;1243;72557;-74
2022/06/06 01:42:36;;;;;;;10.70;9.20;;;;;;;15.83;87.76;101189.77;107825;1243;72598;-74
2022/06/06 01:45:33;;;;;;;13.30;11.00;;;;;;;15.81;88.14;101192.58;107776;1242;71537;-73
2022/06/06 01:48:14;;;;;;;10.30;8.70;;;;;;;15.79;88.17;101197.80;107799;1243;71839;-74
2022/06/06 01:50:44;;;;;;;9.90;8.40;;;;;;;15.79;87.62;101194.65;107675;1243;62960;-74
2022/06/06 01:53:18;;;;;;;12.30;9.00;;;;;;;15.73;88.82;101199.10;107565;1246;60230;-75
2022/06/06 01:55:50;;;;;;;10.60;9.00;;;;;;;15.76;88.09;101198.13;107837;1243;74713;-72
2022/06/06 01:58:27;;;;;;;9.30;7.50;;;;;;;15.75;87.76;101196.08;107734;1243;69474;-78
2022/06/06 02:00:56;;;;;;;10.20;8.40;;;;;;;15.72;88.16;101200.40;107750;1243;68678;-78
2022/06/06 02:03:25;;;;;;;10.30;8.20;;;;;;;15.73;87.57;101200.09;107645;1243;71783;-76
2022/06/06 02:05:55;;;;;;;11.00;8.60;;;;;;;15.74;87.57;101204.98;107652;1243;60909;-76
2022/06/06 02:08:24;;;;;;;10.40;8.40;;;;;;;15.74;87.82;101203.67;107678;1244;61319;-75
2022/06/06 02:10:53;;;;;;;10.00;8.10;;;;;;;15.76;87.95;101206.70;107798;1243;74615;-74
2022/06/06 02:13:22;;;;;;;12.10;8.30;;;;;;;15.78;87.55;101207.11;107811;1243;70823;-75
2022/06/06 02:15:52;;;;;;;12.40;8.10;;;;;;;15.74;87.68;101205.84;107668;1243;68749;-79
2022/06/06 02:18:24;;;;;;;9.90;8.70;;;;;;;15.77;87.43;101203.47;107750;1243;71960;-72
2022/06/06 02:20:54;;;;;;;13.60;8.70;;;;;;;15.78;87.14;101203.54;107623;1242;62929;-75
2022/06/06 02:23:23;;;;;;;11.10;8.30;;;;;;;15.90;87.36;101198.61;107602;1244;61170;-72
2022/06/06 02:25:54;;;;;;;11.60;8.10;;;;;;;15.94;87.08;101198.84;107852;1243;71951;-77
2022/06/06 02:28:24;;;;;;;10.70;8.60;;;;;;;15.96;86.82;101197.41;107615;1243;71446;-74
2022/06/06 02:30:53;;;;;;;9.60;8.00;;;;;;;15.96;86.56;101197.80;107623;1243;68432;-76
2022/06/06 02:33:22;;;;;;;9.50;7.80;;;;;;;15.96;86.62;101200.62;107799;1243;71181;-75
2022/06/06 02:35:51;;;;;;;10.80;8.40;;;;;;;15.94;86.86;101198.84;107852;1243;61904;-75
2022/06/06 02:38:20;;;;;;;9.30;8.30;;;;;;;15.92;86.71;101202.48;107782;1243;61741;-78
2022/06/06 02:40:49;;;;;;;9.60;8.50;;;;;;;15.89;86.66;101199.61;107848;1243;74913;-71
2022/06/06 02:43:21;;;;;;;11.50;8.40;;;;;;;15.88;86.39;101198.46;107798;1243;71106;-75
2022/06/06 02:45:50;;;;;;;10.30;8.00;;;;;;;15.85;86.83;101197.62;107637;1243;70035;-76
2022/06/06 02:48:19;;;;;;;8.50;7.60;;;;;;;15.82;86.60;101193.73;107566;1244;71654;-75
2022/06/06 02:50:48;;;;;;;10.80;8.90;;;;;;;15.81;86.88;101194.52;107756;1243;62995;-76
2022/06/06 02:53:17;;;;;;;10.60;8.30;;;;;;;15.81;86.48;101191.13;107898;1243;62319;-75
2022/06/06 02:55:45;;;;;;;10.20;8.80;;;;;;;15.82;87.44;101193.33;107788;1244;75451;-80
2022/06/06 02:58:14;;;;;;;10.40;8.70;;;;;;;15.81;87.62;101197.49;107840;1243;72480;-78
2022/06/06 03:00:44;;;;;;;9.50;8.20;;;;;;;15.77;87.26;101198.70;107883;1243;69331;-77
2022/06/06 03:03:13;;;;;;;11.60;8.30;;;;;;;15.78;87.61;101201.27;107799;1243;73320;-76
2022/06/06 03:06:05;;;;;;;9.30;8.10;;;;;;;15.71;87.80;101202.05;107782;1244;61551;-73
2022/06/06 03:09:16;;;;;;;8.90;7.70;;;;;;;15.75;86.99;101204.70;107686;1244;59674;-72
2022/06/06 03:11:56;;;;;;;9.40;7.80;;;;;;;15.76;86.57;101208.66;107755;1243;74262;-72
2022/06/06 03:14:55;;;;;;;9.50;7.50;;;;;;;15.76;86.88;101207.45;107842;1244;71721;-74
2022/06/06 03:21:18;;;;;;;9.30;7.50;;;;;;;15.93;86.63;101200.11;107907;1243;74160;-75
2022/06/06 03:24:17;;;;;;;9.50;7.80;;;;;;;15.99;86.04;101203.52;107872;1243;61640;-72
2022/06/06 03:27:03;;;;;;;9.40;7.80;;;;;;;16.02;85.69;101207.24;107902;1243;58905;-72
2022/06/06 03:30:05;;;;;;;9.60;7.80;;;;;;;16.03;85.66;101209.13;107842;1243;73610;-76
2022/06/06 03:33:35;;;;;;;9.00;7.90;;;;;;;16.03;85.72;101207.83;107971;1243;69456;-75
2022/06/06 03:36:18;;;;;;;10.40;8.40;;;;;;;16.09;85.80;101208.17;107377;1249;71140;-74
2022/06/06 03:38:53;;;;;;;14.80;9.80;;;;;;;16.12;85.59;101212.55;108028;1243;72602;-74
2022/06/06 03:41:28;;;;;;;10.10;7.90;;;;;;;16.10;85.96;101218.81;108017;1243;62266;-73
2022/06/06 03:44:03;;;;;;;11.90;8.30;;;;;;;16.07;86.23;101217.17;107924;1244;59287;-75
2022/06/06 03:46:59;;;;;;;8.30;7.40;;;;;;;16.08;85.72;101216.39;107798;1244;71718;-73
2022/06/06 03:49:54;;;;;;;10.90;8.20;;;;;;;16.12;85.22;101213.22;107799;1244;70353;-74
2022/06/06 03:52:42;;;;;;;11.10;8.00;;;;;;;16.10;85.50;101213.88;107757;1244;70901;-72
2022/06/06 03:55:56;;;;;;;10.20;7.50;;;;;;;16.15;85.29;101214.91;107553;1244;72805;-73
2022/06/06 03:58:30;;;;;;;8.60;7.60;;;;;;;16.19;84.95;101219.27;107562;1244;63022;-73
2022/06/06 04:01:07;;;;;;;8.60;7.50;;;;;;;16.21;84.66;101220.55;107740;1244;59469;-72
2022/06/06 04:03:37;;;;;;;10.80;7.30;;;;;;;16.17;84.75;101224.71;107720;1243;73057;-74
2022/06/06 04:06:07;;;;;;;11.20;7.30;;;;;;;16.15;84.85;101225.95;107749;1244;71252;-77
2022/06/06 04:08:36;;;;;;;11.30;7.90;;;;;;;16.22;84.47;101229.60;107624;1244;69038;-76
2022/06/06 04:11:30;;;;;;;10.80;7.80;;;;;;;16.22;84.46;101233.83;107607;1244;71951;-73
2022/06/06 04:14:11;;;;;;;10.00;7.70;;;;;;;16.19;84.71;101238.95;107751;1244;60452;-72
2022/06/06 04:16:55;;;;;;;10.20;7.80;;;;;;;16.15;85.16;101237.55;107762;1244;61255;-70
2022/06/06 04:20:14;;;;;;;10.70;8.10;;;;;;;16.19;84.73;101239.10;107826;1243;72386;-60
2022/06/06 04:23:11;;;;;;;10.40;8.00;;;;;;;16.23;84.83;101243.90;107795;1244;72014;-65
2022/06/06 04:25:58;;;;;;;11.00;8.20;;;;;;;16.31;84.91;101245.48;107733;1245;71124;-60
2022/06/06 04:28:48;;;;;;;9.70;7.60;;;;;;;16.37;84.46;101245.84;107872;1244;72390;-65
2022/06/06 04:31:54;;;;;;;10.00;7.30;;;;;;;16.44;84.21;101247.11;107808;1244;62996;-61
2022/06/06 04:35:01;;;;;;;10.30;7.90;;;;;;;16.54;83.94;101252.73;107734;1244;60015;-64
2022/06/06 04:37:40;;;;;;;8.50;7.60;;;;;;;16.64;83.70;101256.09;107651;1243;74838;-62
2022/06/06 04:40:36;;;;;;;9.50;7.90;;;;;;;16.70;83.40;101252.55;107695;1244;71276;-64
2022/06/06 04:43:11;;;;;;;10.40;7.30;;;;;;;16.87;82.72;101249.27;107857;1243;70199;-62
2022/06/06 04:46:06;;;;;;;10.70;7.20;;;;;;;17.02;82.65;101255.83;107987;1244;71887;-62
2022/06/06 04:48:36;;;;;;;9.80;7.50;;;;;;;17.13;81.66;101256.44;108006;1243;62223;-63
2022/06/06 04:51:06;;;;;;;9.10;7.70;;;;;;;17.27;81.85;101259.58;107991;1244;59509;-64
2022/06/06 04:53:42;;;;;;;12.00;6.90;;;;;;;17.30;80.85;101265.98;107975;1244;72630;-62
2022/06/06 04:56:16;;;;;;;9.80;7.40;;;;;;;17.45;80.93;101270.53;107941;1243;61421;-63
2022/06/06 04:58:49;;;;;;;9.40;6.90;;;;;;;17.45;80.59;101274.38;107875;1244;60869;-62
2022/06/06 05:01:18;;;;;;;;;;;;;;;17.57;80.48;101281.06;107455;1244;63334;-66
2022/06/06 05:03:47;;;;;;;9.80;7.10;;;;;;;17.47;79.68;101284.95;107673;1244;62988;-61
2022/06/06 05:06:49;;;;;;;11.70;7.30;;;;;;;17.54;79.69;101288.52;107655;1244;59637;-62
2022/06/06 05:09:42;;;;;;;9.10;7.40;;;;;;;17.70;78.45;101282.45;107761;1243;74772;-66
2022/06/06 05:12:38;;;;;;;7.70;6.60;;;;;;;17.84;78.50;101285.11;107749;1244;72634;-63
2022/06/06 05:15:45;;;;;;;9.10;7.10;;;;;;;17.95;77.70;101284.73;107797;1244;70843;-62
2022/06/06 05:18:18;;;;;;;8.00;7.10;;;;;;;18.07;78.10;101289.98;107409;1244;63596;-62
2022/06/06 05:21:22;;;;;;;8.20;6.60;;;;;;;18.09;77.63;101282.48;107835;1244;59611;-63
2022/06/06 05:24:06;;;;;;;9.30;7.30;;;;;;;18.21;77.30;101285.63;107977;1243;59593;-61
2022/06/06 05:27:06;;;;;;;9.50;7.20;;;;;;;18.37;76.99;101284.80;107757;1244;74378;-62
2022/06/06 05:30:15;;;;;;;9.30;7.00;;;;;;;18.44;76.71;101282.02;107715;1244;72753;-66
2022/06/06 05:33:06;;;;;;;11.40;6.90;;;;;;;18.51;75.38;101284.70;107850;1243;60312;-62
2022/06/06 05:36:02;;;;;;;12.10;6.50;;;;;;;18.78;75.56;101289.75;107902;1243;73959;-61
2022/06/06 05:38:56;;;;;;;6.80;6.00;;;;;;;18.85;72.87;101288.76;107909;1244;61834;-61
2022/06/06 05:41:49;;;;;;;8.20;5.80;;;;;;;18.99;73.69;101288.95;108225;1242;61723;-64
2022/06/06 05:44:56;;;;;;;6.40;5.80;;;;;;;19.18;73.62;101290.08;107801;1244;75437;-71
2022/06/06 05:47:38;;;;;;;7.20;5.90;;;;;;;19.39;72.02;101289.98;107912;1244;61277;-70
2022/06/06 05:50:30;;;;;;;11.30;6.60;;;;;;;19.23;70.20;101291.84;108017;1244;70036;-73
2022/06/06 05:53:03;;;;;;;7.10;6.00;;;;;;;19.28;70.03;101294.40;107921;1244;63823;-74
2022/06/06 05:55:55;;;;;;;7.40;5.80;;;;;;;19.42;70.21;101292.23;108484;1243;59715;-71
2022/06/06 05:58:33;;;;;;;7.30;6.30;;;;;;;19.70;70.33;101289.09;107796;1244;58541;-72
2022/06/06 06:01:44;;;;;;;6.90;5.70;;;;;;;19.79;70.02;101289.19;107970;1244;63839;-73
2022/06/06 06:05:01;;;;;;;6.80;5.70;;;;;;;19.71;68.79;101293.91;107911;1244;64021;-69
2022/06/06 06:07:51;;;;;;;8.70;5.90;;;;;;;19.52;67.97;101292.33;107414;1250;71006;-73
2022/06/06 06:10:47;;;;;;;6.30;5.60;;;;;;;19.30;68.61;101292.73;108028;1242;63724;-73
2022/06/06 06:14:13;;;;;;;8.70;7.10;;;;;;;19.43;68.81;101296.60;108019;1244;59590;-72
2022/06/06 06:16:49;;;;;;;7.50;6.10;;;;;;;19.46;68.18;101288.01;107989;1243;60991;-71
2022/06/06 06:19:26;;;;;;;8.20;5.70;;;;;;;19.44;68.31;101290.88;107988;1242;65423;-72
2022/06/06 06:21:57;;;;;;;7.60;5.70;;;;;;;19.45;68.43;101290.19;107932;1244;72231;-68
2022/06/06 06:24:32;;;;;;;7.20;5.50;;;;;;;19.49;67.99;101285.19;107933;1243;61495;-70
2022/06/06 06:27:04;;;;;;;7.30;6.40;;;;;;;19.57;68.05;101284.73;107803;1244;63293;-69
2022/06/06 06:29:34;;;;;;;7.10;5.90;;;;;;;19.67;68.58;101288.55;107946;1242;60407;-69
2022/06/06 06:32:50;;;;;;;9.50;6.40;;;;;;;19.75;67.87;101284.49;107691;1244;62112;-71
2022/06/06 06:35:27;;;;;;;6.80;5.90;;;;;;;19.68;67.78;101282.46;107099;1250;74352;-71
2022/06/06 06:38:08;;;;;;;8.60;6.50;;;;;;;19.74;67.95;101281.77;107048;1253;62309;-71
2022/06/06 06:41:01;;;;;;;6.90;5.90;;;;;;;19.80;66.67;101276.24;107631;1243;71158;-71
2022/06/06 06:44:01;;;;;;;6.90;5.20;;;;;;;19.89;64.73;101276.45;107842;1244;72947;-75
2022/06/06 06:46:52;;;;;;;7.80;4.90;;;;;;;19.99;64.90;101272.52;107929;1243;60904;-71
2022/06/06 06:49:39;;;;;;;5.80;4.60;;;;;;;20.18;64.52;101270.55;107796;1242;60890;-74
2022/06/06 06:52:37;;;;;;;7.00;4.90;;;;;;;20.29;63.38;101271.36;107955;1244;74945;-70
2022/06/06 06:55:16;;;;;;;4.70;4.00;;;;;;;20.37;63.39;101263.77;107984;1244;73507;-75
2022/06/06 06:58:01;;;;;;;9.60;5.20;;;;;;;20.46;62.73;101266.22;107987;1244;70065;-73
2022/06/06 07:00:46;;;;;;;4.80;4.00;;;;;;;20.53;62.71;101260.54;107846;1244;74709;-75
2022/06/06 07:10:27;;;;;;;5.90;4.50;;;;;;;20.81;60.41;101260.03;107818;1244;75332;-73
2022/06/06 07:13:52;;;;;;;6.40;4.40;;;;;;;20.84;59.54;101262.19;107758;1244;61502;-72
2022/06/06 07:16:28;;;;;;;5.30;3.80;;;;;;;20.96;59.00;101256.42;107630;1243;69481;-73
2022/06/06 07:19:13;;;;;;;6.10;4.30;;;;;;;20.90;57.54;101254.46;107762;1243;73579;-75
2022/06/06 07:21:45;;;;;;;4.30;3.90;;;;;;;21.03;57.60;101252.14;107773;1244;60857;-71
2022/06/06 07:24:19;;;;;;;5.30;4.00;;;;;;;21.22;57.80;101250.77;107662;1244;59615;-69
2022/06/06 07:26:49;;;;;;;4.60;3.80;;;;;;;21.34;57.41;101248.08;107632;1243;74482;-73
2022/06/06 07:29:20;;;;;;;6.90;4.40;;;;;;;21.50;57.54;101250.02;107512;1243;61917;-71
2022/06/06 07:32:39;;;;;;;7.30;4.30;;;;;;;21.59;54.55;101252.79;107740;1244;59932;-76
2022/06/06 07:35:39;;;;;;;5.80;3.70;;;;;;;21.90;53.58;101247.34;107472;1243;73159;-76
2022/06/06 07:38:44;;;;;;;5.20;3.60;;;;;;;22.03;52.37;101245.02;107726;1243;61169;-75
2022/06/06 07:41:37;;;;;;;4.00;3.40;;;;;;;21.92;51.95;101247.09;108066;1244;59618;-73
2022/06/06 07:44:20;;;;;;;;;;;;;;;21.94;51.91;101250.16;108078;1244;63850;-76
2022/06/06 07:47:21;;;;;;;4.00;3.30;;;;;;;21.81;51.05;101255.10;107963;1243;72209;-75
2022/06/06 07:49:54;;;;;;;6.40;3.30;;;;;;;21.66;51.93;101257.31;107828;1244;60311;-73
2022/06/06 07:52:37;;;;;;;5.90;4.70;;;;;;;21.75;51.37;101255.27;107909;1243;63142;-74
2022/06/06 07:55:29;;;;;;;4.70;3.60;;;;;;;22.03;50.61;101248.56;107945;1244;60485;-78
2022/06/06 07:58:16;;;;;;;5.20;3.00;;;;;;;22.24;49.96;101253.77;107923;1244;60908;-74
2022/06/06 08:00:57;;;;;;;4.10;3.00;;;;;;;22.42;50.41;101253.55;107903;1242;74495;-75
2022/06/06 08:03:49;;;;;;;3.80;3.10;;;;;;;22.55;49.04;101252.05;107959;1244;62172;-74
2022/06/06 08:07:04;;;;;;;3.60;2.90;;;;;;;22.68;48.29;101248.26;107996;1244;70916;-74
2022/06/06 08:10:06;;;;;;;3.10;2.60;;;;;;;22.75;47.13;101244.11;107961;1244;63764;-74
2022/06/06 08:12:55;;;;;;;3.00;2.70;;;;;;;22.87;46.50;101238.72;108023;1244;59743;-74
2022/06/06 08:16:00;;;;;;;4.00;3.20;;;;;;;22.86;45.84;101236.36;108058;1244;58190;-76
2022/06/06 08:18:48;;;;;;;4.30;2.60;;;;;;;22.96;46.39;101237.55;107997;1244;73466;-74
2022/06/06 08:21:39;;;;;;;3.80;2.80;;;;;;;22.97;45.95;101233.60;107982;1243;62339;-76
2022/06/06 08:24:25;;;;;;;2.60;2.40;;;;;;;23.20;45.21;101233.35;107804;1244;59871;-75
2022/06/06 08:27:17;;;;;;;3.50;2.70;;;;;;;23.28;44.59;101230.59;107976;1242;63323;-74
2022/06/06 08:29:48;;;;;;;4.00;2.80;;;;;;;23.28;44.66;101230.38;107826;1244;59599;-77
2022/06/06 08:32:17;;;;;;;3.80;2.30;;;;;;;23.33;45.10;101236.77;108096;1244;59942;-75
2022/06/06 08:34:48;;;;;;;4.80;2.50;;;;;;;23.64;44.59;101235.19;107927;1242;64391;-75
2022/06/06 08:37:47;;;;;;;3.50;2.50;;;;;;;23.89;42.49;101236.48;107891;1243;71469;-70
2022/06/06 08:41:03;;;;;;;4.10;2.10;;;;;;;23.70;41.56;101240.29;107817;1243;60486;-73
2022/06/06 08:44:15;;;;;;;3.40;2.30;;;;;;;23.60;41.54;101238.90;107846;1244;62496;-73
2022/06/06 08:47:43;;;;;;;3.00;2.40;;;;;;;23.75;42.93;101241.54;107939;1243;61322;-74
2022/06/06 08:50:46;;;;;;;3.40;2.40;;;;;;;24.02;42.20;101242.36;107458;1244;61955;-77
2022/06/06 08:54:07;;;;;;;3.00;2.50;;;;;;;24.06;41.94;101244.20;107979;1243;64257;-73
2022/06/06 08:57:05;;;;;;;4.80;3.10;;;;;;;23.92;41.71;101251.05;107901;1244;61228;-76
2022/06/06 09:00:09;;;;;;;3.50;2.50;;;;;;;23.94;42.57;101244.96;107908;1243;70724;-74
2022/06/06 09:03:31;;;;;;;3.90;2.80;;;;;;;23.92;42.43;101242.35;107882;1244;63621;-74
2022/06/06 09:06:41;;;;;;;6.30;2.90;;;;;;;24.30;42.35;101241.27;108279;1244;61197;-73
2022/06/06 09:09:40;;;;;;;3.10;2.40;;;;;;;24.61;41.09;101237.44;107975;1244;61405;-71
2022/06/06 09:12:32;;;;;;;3.40;2.40;;;;;;;24.63;41.04;101236.71;108248;1243;75365;-75
2022/06/06 09:15:16;;;;;;;4.00;2.70;;;;;;;24.64;40.29;101236.73;108182;1242;62381;-74
2022/06/06 09:18:19;;;;;;;3.20;2.10;;;;;;;24.62;41.00;101237.23;108118;1244;70592;-77
2022/06/06 09:21:31;;;;;;;3.00;2.70;;;;;;;24.74;41.02;101230.36;107934;1243;74469;-72
2022/06/06 09:24:28;;;;;;;4.20;2.30;;;;;;;24.49;40.73;101228.58;107326;1250;60444;-72
2022/06/06 09:27:05;;;;;;;4.00;2.40;;;;;;;24.47;40.51;101226.36;107449;1249;61333;-75
2022/06/06 09:30:01;;;;;;;2.70;2.40;;;;;;;24.49;41.03;101227.20;107957;1243;64252;-75
2022/06/06 09:33:10;;;;;;;3.00;2.40;;;;;;;24.35;39.98;101229.13;108067;1244;61065;-75
2022/06/06 09:35:45;;;;;;;3.50;2.50;;;;;;;24.35;40.32;101225.59;107810;1244;69581;-73
2022/06/06 09:39:03;;;;;;;2.60;2.10;;;;;;;24.39;40.13;101226.42;108082;1244;63163;-77
2022/06/06 09:41:39;;;;;;;4.00;2.20;;;;;;;24.49;39.93;101223.95;107932;1243;59693;-73
2022/06/06 09:44:39;;;;;;;3.50;2.30;;;;;;;24.43;38.95;101220.08;107889;1244;59567;-75
2022/06/06 09:47:51;;;;;;;3.40;2.50;;;;;;;24.53;39.53;101217.77;108034;1243;63813;-73
2022/06/06 09:51:00;;;;;;;4.00;2.10;;;;;;;24.83;39.59;101217.05;108133;1243;60912;-76
2022/06/06 09:53:43;;;;;;;7.20;2.50;;;;;;;24.92;38.68;101223.05;107813;1243;69076;-76
2022/06/06 09:59:32;;;;;;;2.70;2.20;;;;;;;24.77;39.51;101221.19;107845;1242;62464;-75
2022/06/06 10:02:22;;;;;;;3.00;2.20;;;;;;;24.87;38.78;101219.98;108026;1243;59675;-75
2022/06/06 10:05:24;;;;;;;4.30;2.00;;;;;;;24.69;38.05;101219.58;108062;1243;63187;-75
2022/06/06 10:08:47;;;;;;;3.90;2.20;;;;;;;24.44;39.05;101221.18;107870;1243;61677;-74
2022/06/06 10:12:01;;;;;;;6.20;2.30;;;;;;;24.40;39.66;101216.63;108029;1242;70646;-75
2022/06/06 10:15:13;;;;;;;2.40;1.80;;;;;;;24.35;39.99;101219.31;106847;1244;736516;-74
2022/06/06 10:18:03;;;;;;;2.80;2.20;;;;;;;24.40;38.50;101215.19;107968;1244;60755;-75
2022/06/06 10:20:51;;;;;;;3.90;2.10;;;;;;;24.44;38.60;101215.34;108041;1242;61579;-71
2022/06/06 10:23:53;;;;;;;3.10;2.00;;;;;;;24.30;38.50;101212.02;108117;1244;74086;-74
2022/06/06 10:26:43;;;;;;;3.50;2.10;;;;;;;24.66;39.30;101212.89;107976;1244;63126;-75
2022/06/06 10:29:25;;;;;;;3.60;2.10;;;;;;;25.30;39.50;101211.18;108116;1243;70568;-78
2022/06/06 10:32:38;;;;;;;3.20;1.80;;;;;;;26.01;37.08;101208.00;107817;1244;63774;-77
2022/06/06 10:35:41;;;;;;;2.60;1.80;;;;;;;26.28;35.20;101203.58;107838;1244;61385;-77
2022/06/06 10:38:37;;;;;;;3.50;2.30;;;;;;;26.04;34.80;101206.91;107906;1244;57961;-73
2022/06/06 10:41:42;;;;;;;5.60;1.90;;;;;;;25.88;35.57;101209.61;108107;1242;63015;-73
2022/06/06 10:45:06;;;;;;;4.50;2.20;;;;;;;25.72;36.07;101214.04;108012;1244;71294;-77
2022/06/06 10:47:52;;;;;;;3.60;1.80;;;;;;;25.39;36.25;101213.72;108017;1243;60052;-73
2022/06/06 10:53:38;;;;;;;3.00;2.20;;;;;;;24.73;37.66;101216.02;108132;1243;59586;-75
2022/06/06 10:56:15;;;;;;;3.90;2.10;;;;;;;24.58;37.94;101213.27;107975;1244;60291;-75
2022/06/06 10:59:34;;;;;;;3.70;2.10;;;;;;;24.50;38.21;101208.56;107927;1243;64290;-74
2022/06/06 11:02:23;;;;;;;3.50;2.30;;;;;;;24.62;37.84;101205.44;108082;1243;62133;-75
2022/06/06 11:05:14;;;;;;;2.90;2.20;;;;;;;24.71;37.03;101203.58;108029;1243;70571;-75
2022/06/06 11:07:58;;;;;;;6.90;3.50;;;;;;;24.71;37.96;101197.73;108038;1244;74793;-74
2022/06/06 11:10:39;;;;;;;2.50;2.00;;;;;;;24.74;37.77;101200.52;107951;1244;60792;-74
2022/06/06 11:13:43;;;;;;;4.00;2.10;;;;;;;24.70;37.36;101202.87;108005;1243;58331;-72
2022/06/06 11:17:02;;;;;;;4.30;2.10;;;;;;;24.81;37.42;101198.98;107898;1243;73596;-75
2022/06/06 11:19:53;;;;;;;2.90;2.10;;;;;;;24.92;37.02;101197.73;108069;1244;72590;-77
2022/06/06 11:22:40;;;;;;;4.30;2.00;;;;;;;24.97;37.62;101197.88;107999;1243;59933;-75
2022/06/06 11:25:19;;;;;;;3.70;2.20;;;;;;;25.17;37.45;101198.67;107945;1243;72018;-74
2022/06/06 11:27:59;;;;;;;3.60;2.40;;;;;;;25.28;37.24;101196.21;108077;1243;61336;-76
2022/06/06 11:30:50;;;;;;;5.80;2.30;;;;;;;25.38;37.20;101197.17;108044;1243;57932;-78
2022/06/06 11:33:57;;;;;;;9.00;2.50;;;;;;;25.41;37.36;101202.01;107922;1243;72740;-78
2022/06/06 11:36:47;;;;;;;4.40;2.30;;;;;;;25.31;37.79;101198.04;108097;1243;72281;-75
2022/06/06 11:39:47;;;;;;;2.90;2.00;;;;;;;25.47;37.28;101198.09;107937;1243;60498;-75
2022/06/06 11:42:48;;;;;;;2.80;2.10;;;;;;;25.62;36.86;101197.11;108111;1243;63341;-78
2022/06/06 11:45:42;;;;;;;2.80;2.20;;;;;;;25.36;37.24;101194.56;108165;1243;60476;-75
2022/06/06 11:49:01;;;;;;;3.80;2.20;;;;;;;25.17;38.38;101195.27;108147;1242;61811;-78
2022/06/06 11:52:11;;;;;;;5.00;2.10;;;;;;;25.22;38.21;101201.35;108022;1243;66200;-73
2022/06/06 11:55:00;;;;;;;4.30;2.00;;;;;;;25.13;38.26;101199.96;108172;1243;62836;-73
2022/06/06 11:57:49;;;;;;;3.90;2.10;;;;;;;25.08;38.17;101196.67;107953;1243;60177;-74
2022/06/06 12:00:43;;;;;;;3.20;1.90;;;;;;;25.09;38.26;101202.47;107902;1244;63267;-76
2022/06/06 12:03:46;;;;;;;3.30;2.50;;;;;;;24.93;38.46;101198.26;107910;1244;61580;-74
2022/06/06 12:06:31;;;;;;;4.80;2.30;;;;;;;24.97;38.78;101195.05;107822;1243;59521;-76
2022/06/06 12:09:44;;;;;;;4.00;2.20;;;;;;;24.90;38.82;101192.27;108082;1243;74425;-73
2022/06/06 12:12:42;;;;;;;;;;;;;;;24.91;38.05;101193.47;107949;1243;72651;-74
2022/06/06 12:15:38;;;;;;;3.60;2.10;;;;;;;25.14;38.18;101193.55;107996;1243;71221;-73
2022/06/06 12:18:40;;;;;;;4.90;2.30;;;;;;;25.42;37.11;101191.73;108451;1243;75597;-76
2022/06/06 12:22:03;;;;;;;3.60;2.30;;;;;;;25.71;37.37;101188.27;108414;1243;61849;-79
2022/06/06 12:25:08;;;;;;;2.90;2.10;;;;;;;25.66;35.87;101185.48;107984;1244;62127;-76
2022/06/06 12:28:12;;;;;;;2.20;2.00;;;;;;;25.68;35.76;101182.87;108143;1243;65191;-76
2022/06/06 12:31:00;;;;;;;4.10;2.10;;;;;;;25.74;35.44;101179.96;108106;1243;60875;-77
2022/06/06 12:33:50;;;;;;;4.10;2.00;;;;;;;25.81;36.13;101174.13;108068;1243;69766;-76
2022/06/06 12:36:35;;;;;;;5.40;2.20;;;;;;;26.10;35.83;101171.39;107832;1244;62965;-77
2022/06/06 12:39:33;;;;;;;4.40;1.90;;;;;;;26.11;35.25;101167.93;108034;1244;59564;-73
2022/06/06 12:42:36;;;;;;;4.60;2.40;;;;;;;26.31;34.96;101163.37;108022;1243;61379;-78
2022/06/06 12:45:46;;;;;;;5.90;2.10;;;;;;;25.98;35.41;101159.66;107854;1243;75253;-76
2022/06/06 12:48:36;;;;;;;2.50;2.10;;;;;;;26.35;34.60;101160.61;107902;1243;72077;-76
2022/06/06 12:51:24;;;;;;;4.00;1.90;;;;;;;26.56;33.31;101157.41;107863;1243;71310;-74
2022/06/06 12:58:24;;;;;;;4.10;2.10;;;;;;;26.95;33.27;101159.26;107440;1244;59453;-75
2022/06/06 13:04:19;;;;;;;3.90;1.80;;;;;;;27.60;32.05;101152.33;107912;1243;74346;-74
2022/06/06 13:07:16;;;;;;;4.20;2.00;;;;;;;27.33;31.68;101152.08;108038;1242;72299;-74
2022/06/06 13:10:33;;;;;;;3.00;1.60;;;;;;;27.75;32.16;101151.45;107967;1243;60995;-77
2022/06/06 13:13:40;;;;;;;2.50;1.70;;;;;;;27.72;31.78;101148.12;107700;1244;73963;-77
2022/06/06 13:16:27;;;;;;;2.90;1.70;;;;;;;28.13;31.47;101148.17;108195;1243;59574;-80